Main page


Airports :

El Salvador, El Salvador

Monseñor Óscar Arnulfo Romero International Airport

latitude: 13-26N, longitude: 089-03W, elevation: 25 m

Current weather observation

The report was made 23 minutes ago, at 22:50 UTC
Wind 6 kt from the Southwest, varying between South and West/Southwest
Temperature 32°C
Humidity 49%
Pressure 1010 hPa
Visibility 10 km or more
no clouds below 1500 m and no cumulonimbus

METAR: MSLP 222250Z 22006KT 170V250 CAVOK 32/20 Q1010 A2983 NOSIG

Time: 17:13 (23:13 UTC)


The report was made 7 hours and 48 minutes ago, at 15:25 UTC
Forecast valid from 22 at 18 UTC to 23 at 18 UTC
Wind 8 kt from the South/Southwest with gusts up to 18 kt
Visibility 10 km or more
Few clouds at a height of 5000 ft
From 23 at 0000 UTC
Wind 10 kt from the North/Northeast
Visibility 10 km or more
no clouds below 1500 m and no cumulonimbus

TAF: MSLP 221525Z 2218/2318 20008G18KT 9999 FEW050 TX35/2218Z TN22/2310Z FM230000 03010KT CAVOK

Weather observations and forecasts of more than 4000 airports (METAR and TAF reports).

The available stations are represented by yellow and red dots on the map.

Hover mouse over dot to see the name of the station.

Then click to see weather observations and forecasts.

To change the map : click on the green buttons with a black cross to zoom in, on the green button with a dash to zoom out, or on the green arrows for adjacent maps.